Time;durP1;ratioP1;P1;durP2;ratioP2;P2;SDS_P1;SDS_P2;PMS_P1;PMS_P2;Temp;Humidity;BMP_temperature;BMP_pressure;BME280_temperature;BME280_humidity;BME280_pressure;Samples;Min_cycle;Max_cycle;Signal;HPM_P1;HPM_P2
2022/09/13 00:00:19;;;;;;;;;;;;;;;;;;2133088;27;19930;-42
2022/09/13 00:01:20;;;;;;;;;;;;;;;;;;2133252;27;19927;-42
2022/09/13 00:02:21;;;;;;;;;;;;;;;;;;2133233;27;19923;-42
2022/09/13 00:03:22;;;;;;;;;;;;;;;;;;2133363;27;19923;-45
2022/09/13 00:04:22;;;;;;;;;;;;;;;;;;2133119;27;20019;-45
2022/09/13 00:05:23;;;;;;;;;;;;;;;;;;2133141;27;19975;-44
2022/09/13 00:06:24;;;;;;;;;;;;;;;;;;2133047;27;19923;-45
2022/09/13 00:07:25;;;;;;;;;;;;;;;;;;2133079;27;19923;-46
2022/09/13 00:08:26;;;;;;;;;;;;;;;;;;2133291;27;20072;-45
2022/09/13 00:09:27;;;;;;;;;;;;;;;;;;2133101;27;19923;-46
2022/09/13 00:10:28;;;;;;;;;;;;;;;;;;2133081;27;20038;-46
2022/09/13 00:11:28;;;;;;;;;;;;;;;;;;2133026;27;20199;-44
2022/09/13 00:12:29;;;;;;;;;;;;;;;;;;2133045;27;20046;-45
2022/09/13 00:13:30;;;;;;;;;;;;;;;;;;2133014;27;19984;-44
2022/09/13 00:14:31;;;;;;;;;;;;;;;;;;2133161;27;19923;-46
2022/09/13 00:15:32;;;;;;;;;;;;;;;;;;2133151;27;19930;-45
2022/09/13 00:16:33;;;;;;;;;;;;;;;;;;2133092;27;19931;-45
2022/09/13 00:17:33;;;;;;;;;;;;;;;;;;2133175;27;20373;-45
2022/09/13 00:18:34;;;;;;;;;;;;;;;;;;2132995;27;19930;-45
2022/09/13 00:19:35;;;;;;;;;;;;;;;;;;2133034;27;19923;-44
2022/09/13 00:20:36;;;;;;;;;;;;;;;;;;2132981;27;19923;-46
2022/09/13 00:21:37;;;;;;;;;;;;;;;;;;2133163;27;20114;-45
2022/09/13 00:22:38;;;;;;;;;;;;;;;;;;2132931;27;20032;-46
2022/09/13 00:23:40;;;;;;;;;;;;;;;;;;2133123;27;19923;-46
2022/09/13 00:24:41;;;;;;;;;;;;;;;;;;2132876;27;20371;-45
2022/09/13 00:25:41;;;;;;;;;;;;;;;;;;2133102;27;19923;-45
2022/09/13 00:26:42;;;;;;;;;;;;;;;;;;2132857;27;20350;-45
2022/09/13 00:27:43;;;;;;;;;;;;;;;;;;2132972;27;20026;-45
2022/09/13 00:28:45;;;;;;;;;;;;;;;;;;2133056;27;19943;-45
2022/09/13 00:29:45;;;;;;;;;;;;;;;;;;2132910;27;19927;-45
2022/09/13 00:30:46;;;;;;;;;;;;;;;;;;2132947;27;19923;-45
2022/09/13 00:31:47;;;;;;;;;;;;;;;;;;2132820;27;19923;-44
2022/09/13 00:32:48;;;;;;;;;;;;;;;;;;2133044;27;19931;-46
2022/09/13 00:33:49;;;;;;;;;;;;;;;;;;2132873;27;20320;-44
2022/09/13 00:34:50;;;;;;;;;;;;;;;;;;2132921;27;19930;-45
2022/09/13 00:35:51;;;;;;;;;;;;;;;;;;2132805;27;19923;-44
2022/09/13 00:36:52;;;;;;;;;;;;;;;;;;2132853;27;20265;-45
2022/09/13 00:37:52;;;;;;;;;;;;;;;;;;2132855;27;19924;-44
2022/09/13 00:38:53;;;;;;;;;;;;;;;;;;2132823;27;19923;-45
2022/09/13 00:39:54;;;;;;;;;;;;;;;;;;2132920;27;19923;-45
2022/09/13 00:40:55;;;;;;;;;;;;;;;;;;2132871;27;19931;-46
2022/09/13 00:41:56;;;;;;;;;;;;;;;;;;2132803;27;20287;-45
2022/09/13 00:42:57;;;;;;;;;;;;;;;;;;2132776;27;19952;-45
2022/09/13 00:43:57;;;;;;;;;;;;;;;;;;2132804;27;19923;-45
2022/09/13 00:44:58;;;;;;;;;;;;;;;;;;2132720;27;19971;-46
2022/09/13 00:45:59;;;;;;;;;;;;;;;;;;2132843;27;19931;-44
2022/09/13 00:47:00;;;;;;;;;;;;;;;;;;2132680;27;19932;-45
2022/09/13 00:48:01;;;;;;;;;;;;;;;;;;2132989;27;19984;-45
2022/09/13 00:49:02;;;;;;;;;;;;;;;;;;2132802;27;19923;-45
2022/09/13 00:50:02;;;;;;;;;;;;;;;;;;2132794;27;20044;-45
2022/09/13 00:51:03;;;;;;;;;;;;;;;;;;2132954;27;19927;-44
2022/09/13 00:52:04;;;;;;;;;;;;;;;;;;2132726;27;20287;-45
2022/09/13 00:53:05;;;;;;;;;;;;;;;;;;2132980;27;20021;-45
2022/09/13 00:54:06;;;;;;;;;;;;;;;;;;2132695;27;19946;-45
2022/09/13 00:55:07;;;;;;;;;;;;;;;;;;2132917;27;19930;-44
2022/09/13 00:56:08;;;;;;;;;;;;;;;;;;2132699;27;19984;-46
2022/09/13 00:57:09;;;;;;;;;;;;;;;;;;2132695;27;20264;-45
2022/09/13 00:58:10;;;;;;;;;;;;;;;;;;2132468;27;20018;-46
2022/09/13 00:59:11;;;;;;;;;;;;;;;;;;2132709;27;19923;-45
2022/09/13 01:00:12;;;;;;;;;;;;;;;;;;2132842;27;19923;-45
2022/09/13 01:01:13;;;;;;;;;;;;;;;;;;2132968;27;20336;-45
2022/09/13 01:02:14;;;;;;;;;;;;;;;;;;2132826;27;19934;-46
2022/09/13 01:03:15;;;;;;;;;;;;;;;;;;2132751;27;20446;-46
2022/09/13 01:04:16;;;;;;;;;;;;;;;;;;2132880;27;20232;-46
2022/09/13 01:05:17;;;;;;;;;;;;;;;;;;2132848;27;19954;-46
2022/09/13 01:06:18;;;;;;;;;;;;;;;;;;2132647;27;20358;-44
2022/09/13 01:07:19;;;;;;;;;;;;;;;;;;2132801;27;19927;-45
2022/09/13 01:08:21;;;;;;;;;;;;;;;;;;2132696;27;20010;-45
2022/09/13 01:09:22;;;;;;;;;;;;;;;;;;2132836;27;19968;-45
2022/09/13 01:10:23;;;;;;;;;;;;;;;;;;2132614;27;19923;-45
2022/09/13 01:11:24;;;;;;;;;;;;;;;;;;2132428;27;19961;-46
2022/09/13 01:12:25;;;;;;;;;;;;;;;;;;2132690;27;19952;-45
2022/09/13 01:13:26;;;;;;;;;;;;;;;;;;2132796;27;19952;-45
2022/09/13 01:14:27;;;;;;;;;;;;;;;;;;2132647;27;19934;-45
2022/09/13 01:15:27;;;;;;;;;;;;;;;;;;2132817;27;19930;-45
2022/09/13 01:16:28;;;;;;;;;;;;;;;;;;2132612;27;19973;-45
2022/09/13 01:17:29;;;;;;;;;;;;;;;;;;2132738;27;19967;-45
2022/09/13 01:18:30;;;;;;;;;;;;;;;;;;2132727;27;19923;-46
2022/09/13 01:19:31;;;;;;;;;;;;;;;;;;2132645;27;20029;-45
2022/09/13 01:20:31;;;;;;;;;;;;;;;;;;2132703;27;20025;-44
2022/09/13 01:21:32;;;;;;;;;;;;;;;;;;2132503;27;20475;-45
2022/09/13 01:22:33;;;;;;;;;;;;;;;;;;2132609;27;19960;-45
2022/09/13 01:23:34;;;;;;;;;;;;;;;;;;2132595;27;19971;-45
2022/09/13 01:24:35;;;;;;;;;;;;;;;;;;2132587;27;19969;-46
2022/09/13 01:25:36;;;;;;;;;;;;;;;;;;2132441;27;19972;-46
2022/09/13 01:26:36;;;;;;;;;;;;;;;;;;2132448;27;19930;-46
2022/09/13 01:27:37;;;;;;;;;;;;;;;;;;2132678;27;19923;-46
2022/09/13 01:28:38;;;;;;;;;;;;;;;;;;2132666;27;19934;-46
2022/09/13 01:29:39;;;;;;;;;;;;;;;;;;2132629;27;20446;-46
2022/09/13 01:30:41;;;;;;;;;;;;;;;;;;2132420;27;19929;-46
2022/09/13 01:31:41;;;;;;;;;;;;;;;;;;2132431;27;19923;-45
2022/09/13 01:32:42;;;;;;;;;;;;;;;;;;2132500;27;20394;-46
2022/09/13 01:33:43;;;;;;;;;;;;;;;;;;2132634;27;19923;-47
2022/09/13 01:34:44;;;;;;;;;;;;;;;;;;2132529;27;19934;-45
2022/09/13 01:35:45;;;;;;;;;;;;;;;;;;2132632;27;19960;-46
2022/09/13 01:36:46;;;;;;;;;;;;;;;;;;2132494;27;20389;-45
2022/09/13 01:37:46;;;;;;;;;;;;;;;;;;2132530;27;19971;-47
2022/09/13 01:38:48;;;;;;;;;;;;;;;;;;2132432;27;19924;-46
2022/09/13 01:39:49;;;;;;;;;;;;;;;;;;2132482;27;19927;-46
2022/09/13 01:40:50;;;;;;;;;;;;;;;;;;2132440;27;20052;-45
2022/09/13 01:41:50;;;;;;;;;;;;;;;;;;2132352;27;19972;-46
2022/09/13 01:42:51;;;;;;;;;;;;;;;;;;2132476;27;19923;-45
2022/09/13 01:43:52;;;;;;;;;;;;;;;;;;2132418;27;20013;-45
2022/09/13 01:44:53;;;;;;;;;;;;;;;;;;2132452;27;20022;-45
2022/09/13 01:45:54;;;;;;;;;;;;;;;;;;2132496;27;19946;-46
2022/09/13 01:46:55;;;;;;;;;;;;;;;;;;2132797;27;19968;-45
2022/09/13 01:47:55;;;;;;;;;;;;;;;;;;2132395;27;19931;-46
2022/09/13 01:48:56;;;;;;;;;;;;;;;;;;2132552;27;20064;-45
2022/09/13 01:49:57;;;;;;;;;;;;;;;;;;2132507;27;19923;-46
2022/09/13 01:50:58;;;;;;;;;;;;;;;;;;2132672;27;19923;-44
2022/09/13 01:51:58;;;;;;;;;;;;;;;;;;2132317;27;19927;-43
2022/09/13 01:52:59;;;;;;;;;;;;;;;;;;2132404;27;19927;-43
2022/09/13 01:54:00;;;;;;;;;;;;;;;;;;2132379;27;20013;-43
2022/09/13 01:55:01;;;;;;;;;;;;;;;;;;2132326;27;19965;-43
2022/09/13 01:56:02;;;;;;;;;;;;;;;;;;2132356;27;20391;-43
2022/09/13 01:57:03;;;;;;;;;;;;;;;;;;2132211;27;19931;-43
2022/09/13 01:58:03;;;;;;;;;;;;;;;;;;2132602;27;20005;-45
2022/09/13 01:59:04;;;;;;;;;;;;;;;;;;2132310;27;19923;-46
2022/09/13 02:00:06;;;;;;;;;;;;;;;;;;2132316;27;19969;-45
2022/09/13 02:01:07;;;;;;;;;;;;;;;;;;2132423;27;19924;-46
2022/09/13 02:02:08;;;;;;;;;;;;;;;;;;2132197;27;19975;-45
2022/09/13 02:03:09;;;;;;;;;;;;;;;;;;2132477;27;19927;-45
2022/09/13 02:04:11;;;;;;;;;;;;;;;;;;2132237;27;20321;-46
2022/09/13 02:05:12;;;;;;;;;;;;;;;;;;2132229;27;19923;-45
2022/09/13 02:06:12;;;;;;;;;;;;;;;;;;2132376;27;19923;-45
2022/09/13 02:07:13;;;;;;;;;;;;;;;;;;2132505;27;19965;-45
2022/09/13 02:08:14;;;;;;;;;;;;;;;;;;2132214;27;19923;-44
2022/09/13 02:09:15;;;;;;;;;;;;;;;;;;2132064;27;19930;-43
2022/09/13 02:10:19;;;;;;;;;;;;;;;;;;2131991;27;19923;-43
2022/09/13 02:11:21;;;;;;;;;;;;;;;;;;2131934;27;19927;-43
2022/09/13 02:12:21;;;;;;;;;;;;;;;;;;2132371;27;19930;-43
2022/09/13 02:13:23;;;;;;;;;;;;;;;;;;2132232;27;19924;-43
2022/09/13 02:14:23;;;;;;;;;;;;;;;;;;2132755;27;19923;-45
2022/09/13 02:15:24;;;;;;;;;;;;;;;;;;2132237;27;19930;-45
2022/09/13 02:16:25;;;;;;;;;;;;;;;;;;2132150;27;19987;-45
2022/09/13 02:17:26;;;;;;;;;;;;;;;;;;2132166;27;19930;-45
2022/09/13 02:18:27;;;;;;;;;;;;;;;;;;2132464;27;19923;-45
2022/09/13 02:19:28;;;;;;;;;;;;;;;;;;2132198;27;19935;-45
2022/09/13 02:20:28;;;;;;;;;;;;;;;;;;2132312;27;20413;-44
2022/09/13 02:21:29;;;;;;;;;;;;;;;;;;2132230;27;19950;-44
2022/09/13 02:22:30;;;;;;;;;;;;;;;;;;2132191;27;20283;-45
2022/09/13 02:23:32;;;;;;;;;;;;;;;;;;2132210;27;19999;-45
2022/09/13 02:24:32;;;;;;;;;;;;;;;;;;2132212;27;19923;-44
2022/09/13 02:25:33;;;;;;;;;;;;;;;;;;2132208;27;20172;-46
2022/09/13 02:26:34;;;;;;;;;;;;;;;;;;2132209;27;19927;-43
2022/09/13 02:27:35;;;;;;;;;;;;;;;;;;2132118;27;19923;-43
2022/09/13 02:28:35;;;;;;;;;;;;;;;;;;2132507;27;19923;-43
2022/09/13 02:29:36;;;;;;;;;;;;;;;;;;2132189;27;19923;-43
2022/09/13 02:30:39;;;;;;;;;;;;;;;;;;2132241;27;20415;-43
2022/09/13 02:31:40;;;;;;;;;;;;;;;;;;2132056;27;19922;-43
2022/09/13 02:32:40;;;;;;;;;;;;;;;;;;2132305;27;19975;-43
2022/09/13 02:33:41;;;;;;;;;;;;;;;;;;2132267;27;19927;-43
2022/09/13 02:34:42;;;;;;;;;;;;;;;;;;2132198;27;19923;-43
2022/09/13 02:35:43;;;;;;;;;;;;;;;;;;2132115;27;20325;-43
2022/09/13 02:36:44;;;;;;;;;;;;;;;;;;2132017;27;19930;-43
2022/09/13 02:37:45;;;;;;;;;;;;;;;;;;2132063;27;19927;-43
2022/09/13 02:38:46;;;;;;;;;;;;;;;;;;2132217;27;20018;-43
2022/09/13 02:39:47;;;;;;;;;;;;;;;;;;2132258;27;19922;-43
2022/09/13 02:40:48;;;;;;;;;;;;;;;;;;2132299;27;19966;-43
2022/09/13 02:41:49;;;;;;;;;;;;;;;;;;2132162;27;20296;-44
2022/09/13 02:42:50;;;;;;;;;;;;;;;;;;2132128;27;19923;-44
2022/09/13 02:43:51;;;;;;;;;;;;;;;;;;2132285;27;19930;-44
2022/09/13 02:44:51;;;;;;;;;;;;;;;;;;2132044;27;19923;-43
2022/09/13 02:45:52;;;;;;;;;;;;;;;;;;2132298;27;19966;-45
2022/09/13 02:46:53;;;;;;;;;;;;;;;;;;2132506;27;20006;-43
2022/09/13 02:47:55;;;;;;;;;;;;;;;;;;2132798;27;20404;-44
2022/09/13 02:48:56;;;;;;;;;;;;;;;;;;2132199;27;19924;-45
2022/09/13 02:49:57;;;;;;;;;;;;;;;;;;2132037;27;20287;-44
2022/09/13 02:50:58;;;;;;;;;;;;;;;;;;2132280;27;19930;-48
2022/09/13 02:51:59;;;;;;;;;;;;;;;;;;2131928;27;20313;-45
2022/09/13 02:52:59;;;;;;;;;;;;;;;;;;2131966;27;19957;-45
2022/09/13 02:54:00;;;;;;;;;;;;;;;;;;2131966;27;19937;-45
2022/09/13 02:55:01;;;;;;;;;;;;;;;;;;2132605;27;19923;-45
2022/09/13 02:56:02;;;;;;;;;;;;;;;;;;2132008;27;20018;-45
2022/09/13 02:57:03;;;;;;;;;;;;;;;;;;2131896;27;19923;-45
2022/09/13 02:58:04;;;;;;;;;;;;;;;;;;2132082;27;19923;-45
2022/09/13 02:59:04;;;;;;;;;;;;;;;;;;2131956;27;19927;-46
2022/09/13 03:00:05;;;;;;;;;;;;;;;;;;2131927;27;19923;-45
2022/09/13 03:01:06;;;;;;;;;;;;;;;;;;2132069;27;20006;-46
2022/09/13 03:02:07;;;;;;;;;;;;;;;;;;2132143;27;19923;-44
2022/09/13 03:03:08;;;;;;;;;;;;;;;;;;2132198;27;19923;-45
2022/09/13 03:04:09;;;;;;;;;;;;;;;;;;2131921;27;19938;-44
2022/09/13 03:05:10;;;;;;;;;;;;;;;;;;2131876;27;20403;-45
2022/09/13 03:06:11;;;;;;;;;;;;;;;;;;2131988;27;19966;-46
2022/09/13 03:07:12;;;;;;;;;;;;;;;;;;2131763;27;20325;-44
2022/09/13 03:08:13;;;;;;;;;;;;;;;;;;2131906;27;19976;-44
2022/09/13 03:09:13;;;;;;;;;;;;;;;;;;2131944;27;19995;-45
2022/09/13 03:10:14;;;;;;;;;;;;;;;;;;2131883;27;19986;-46
2022/09/13 03:11:17;;;;;;;;;;;;;;;;;;2131622;27;19923;-45
2022/09/13 03:12:18;;;;;;;;;;;;;;;;;;2132053;27;19923;-45
2022/09/13 03:13:19;;;;;;;;;;;;;;;;;;2132126;27;19931;-43
2022/09/13 03:14:20;;;;;;;;;;;;;;;;;;2131996;27;19931;-43
2022/09/13 03:15:20;;;;;;;;;;;;;;;;;;2131955;27;19923;-43
2022/09/13 03:16:21;;;;;;;;;;;;;;;;;;2131794;27;19970;-43
2022/09/13 03:17:22;;;;;;;;;;;;;;;;;;2131909;27;19957;-43
2022/09/13 03:18:23;;;;;;;;;;;;;;;;;;2131885;27;20401;-43
2022/09/13 03:19:24;;;;;;;;;;;;;;;;;;2132085;27;19929;-45
2022/09/13 03:20:25;;;;;;;;;;;;;;;;;;2132219;27;19995;-43
2022/09/13 03:21:25;;;;;;;;;;;;;;;;;;2131640;27;19923;-43
2022/09/13 03:22:26;;;;;;;;;;;;;;;;;;2131777;27;19971;-43
2022/09/13 03:23:27;;;;;;;;;;;;;;;;;;2131849;27;19924;-43
2022/09/13 03:24:28;;;;;;;;;;;;;;;;;;2131702;27;19975;-43
2022/09/13 03:25:29;;;;;;;;;;;;;;;;;;2131893;27;20377;-43
2022/09/13 03:26:30;;;;;;;;;;;;;;;;;;2131950;27;19923;-46
2022/09/13 03:27:30;;;;;;;;;;;;;;;;;;2131971;27;20269;-43
2022/09/13 03:28:31;;;;;;;;;;;;;;;;;;2131947;27;19929;-43
2022/09/13 03:29:32;;;;;;;;;;;;;;;;;;2131717;27;19923;-43
2022/09/13 03:30:33;;;;;;;;;;;;;;;;;;2131962;27;19923;-45
2022/09/13 03:31:34;;;;;;;;;;;;;;;;;;2131848;27;20007;-45
2022/09/13 03:32:35;;;;;;;;;;;;;;;;;;2131881;27;20384;-45
2022/09/13 03:33:35;;;;;;;;;;;;;;;;;;2131918;27;19929;-44
2022/09/13 03:34:36;;;;;;;;;;;;;;;;;;2131810;27;20409;-43
2022/09/13 03:35:37;;;;;;;;;;;;;;;;;;2131717;27;19930;-43
2022/09/13 03:36:38;;;;;;;;;;;;;;;;;;2131648;27;19991;-45
2022/09/13 03:37:39;;;;;;;;;;;;;;;;;;2131908;27;20120;-44
2022/09/13 03:38:41;;;;;;;;;;;;;;;;;;2131687;27;20056;-43
2022/09/13 03:39:42;;;;;;;;;;;;;;;;;;2131896;27;20395;-43
2022/09/13 03:40:44;;;;;;;;;;;;;;;;;;2131656;27;19923;-43
2022/09/13 03:41:45;;;;;;;;;;;;;;;;;;2131784;27;19927;-43
2022/09/13 03:42:46;;;;;;;;;;;;;;;;;;2131689;27;20011;-43
2022/09/13 03:43:46;;;;;;;;;;;;;;;;;;2131778;27;20173;-43
2022/09/13 03:44:47;;;;;;;;;;;;;;;;;;2131655;27;19923;-42
2022/09/13 03:45:48;;;;;;;;;;;;;;;;;;2131754;27;19923;-42
2022/09/13 03:46:49;;;;;;;;;;;;;;;;;;2131876;27;20347;-42
2022/09/13 03:47:50;;;;;;;;;;;;;;;;;;2131838;27;20379;-45
2022/09/13 03:48:51;;;;;;;;;;;;;;;;;;2131796;27;20438;-45
2022/09/13 03:49:51;;;;;;;;;;;;;;;;;;2131702;27;19930;-45
2022/09/13 03:50:53;;;;;;;;;;;;;;;;;;2131627;27;19930;-46
2022/09/13 03:51:53;;;;;;;;;;;;;;;;;;2131673;27;19927;-46
2022/09/13 03:52:54;;;;;;;;;;;;;;;;;;2131756;27;20331;-45
2022/09/13 03:53:55;;;;;;;;;;;;;;;;;;2131750;27;19929;-45
2022/09/13 03:54:56;;;;;;;;;;;;;;;;;;2131658;27;19923;-45
2022/09/13 03:55:57;;;;;;;;;;;;;;;;;;2131776;27;19923;-45
2022/09/13 03:56:58;;;;;;;;;;;;;;;;;;2131545;27;19977;-46
2022/09/13 03:57:59;;;;;;;;;;;;;;;;;;2131640;27;19927;-45
2022/09/13 03:58:59;;;;;;;;;;;;;;;;;;2131583;27;19927;-45
2022/09/13 04:00:00;;;;;;;;;;;;;;;;;;2131767;27;20005;-45
2022/09/13 04:01:01;;;;;;;;;;;;;;;;;;2131937;27;20305;-45
2022/09/13 04:02:02;;;;;;;;;;;;;;;;;;2131644;27;19923;-45
2022/09/13 04:03:03;;;;;;;;;;;;;;;;;;2131714;27;19923;-41
2022/09/13 04:04:03;;;;;;;;;;;;;;;;;;2131799;27;20398;-45
2022/09/13 04:05:05;;;;;;;;;;;;;;;;;;2131644;27;19923;-46
2022/09/13 04:06:06;;;;;;;;;;;;;;;;;;2131583;27;19930;-44
2022/09/13 04:07:07;;;;;;;;;;;;;;;;;;2131514;27;19927;-45
2022/09/13 04:08:08;;;;;;;;;;;;;;;;;;2131618;27;19923;-46
2022/09/13 04:09:09;;;;;;;;;;;;;;;;;;2131592;27;19931;-47
2022/09/13 04:10:10;;;;;;;;;;;;;;;;;;2131593;27;20014;-45
2022/09/13 04:11:14;;;;;;;;;;;;;;;;;;2131268;27;20318;-45
2022/09/13 04:12:15;;;;;;;;;;;;;;;;;;2131534;27;19923;-45
2022/09/13 04:13:16;;;;;;;;;;;;;;;;;;2131598;27;19988;-44
2022/09/13 04:14:16;;;;;;;;;;;;;;;;;;2131631;27;19923;-45
2022/09/13 04:15:17;;;;;;;;;;;;;;;;;;2131900;27;19924;-44
2022/09/13 04:16:18;;;;;;;;;;;;;;;;;;2131906;27;19961;-45
2022/09/13 04:17:19;;;;;;;;;;;;;;;;;;2131699;27;19931;-44
2022/09/13 04:18:20;;;;;;;;;;;;;;;;;;2131851;27;19923;-42
2022/09/13 04:19:21;;;;;;;;;;;;;;;;;;2131821;27;19923;-45
2022/09/13 04:20:21;;;;;;;;;;;;;;;;;;2131407;27;19931;-45
2022/09/13 04:21:23;;;;;;;;;;;;;;;;;;2131409;27;20010;-46
2022/09/13 04:22:23;;;;;;;;;;;;;;;;;;2131669;27;19939;-45
2022/09/13 04:23:24;;;;;;;;;;;;;;;;;;2131471;27;19923;-47
2022/09/13 04:24:25;;;;;;;;;;;;;;;;;;2131641;27;20026;-45
2022/09/13 04:25:26;;;;;;;;;;;;;;;;;;2131360;27;19991;-45
2022/09/13 04:26:27;;;;;;;;;;;;;;;;;;2131577;27;19930;-44
2022/09/13 04:27:28;;;;;;;;;;;;;;;;;;2131687;27;20295;-45
2022/09/13 04:28:29;;;;;;;;;;;;;;;;;;2131639;27;19923;-42
2022/09/13 04:29:31;;;;;;;;;;;;;;;;;;2131764;27;19923;-42
2022/09/13 04:30:32;;;;;;;;;;;;;;;;;;2131649;27;20383;-45
2022/09/13 04:31:33;;;;;;;;;;;;;;;;;;2131530;27;20022;-46
2022/09/13 04:32:34;;;;;;;;;;;;;;;;;;2131697;27;20391;-45
2022/09/13 04:33:36;;;;;;;;;;;;;;;;;;2132842;27;20014;-45
2022/09/13 04:34:36;;;;;;;;;;;;;;;;;;2132914;27;20291;-45
2022/09/13 04:35:38;;;;;;;;;;;;;;;;;;2132856;27;19923;-45
2022/09/13 04:36:39;;;;;;;;;;;;;;;;;;2132784;27;19923;-45
2022/09/13 04:37:39;;;;;;;;;;;;;;;;;;2132889;27;19941;-45
2022/09/13 04:38:40;;;;;;;;;;;;;;;;;;2133013;27;19930;-45
2022/09/13 04:39:42;;;;;;;;;;;;;;;;;;2132857;27;20442;-45
2022/09/13 04:40:43;;;;;;;;;;;;;;;;;;2133030;27;20376;-44
2022/09/13 04:41:44;;;;;;;;;;;;;;;;;;2132674;27;19923;-45
2022/09/13 04:42:45;;;;;;;;;;;;;;;;;;2133053;27;19927;-45
2022/09/13 04:43:46;;;;;;;;;;;;;;;;;;2133084;27;19970;-42
2022/09/13 04:44:48;;;;;;;;;;;;;;;;;;2132983;27;19923;-42
2022/09/13 04:45:49;;;;;;;;;;;;;;;;;;2132958;27;19927;-42
2022/09/13 04:46:50;;;;;;;;;;;;;;;;;;2132792;27;20295;-42
2022/09/13 04:47:52;;;;;;;;;;;;;;;;;;2133089;27;19933;-42
2022/09/13 04:48:53;;;;;;;;;;;;;;;;;;2132854;27;20416;-42
2022/09/13 04:49:54;;;;;;;;;;;;;;;;;;2132974;27;19967;-42
2022/09/13 04:50:55;;;;;;;;;;;;;;;;;;2132974;27;20291;-42
2022/09/13 04:51:56;;;;;;;;;;;;;;;;;;2132855;27;20009;-43
2022/09/13 04:52:57;;;;;;;;;;;;;;;;;;2132858;27;19930;-42
2022/09/13 04:53:59;;;;;;;;;;;;;;;;;;2132832;27;20287;-41
2022/09/13 04:55:00;;;;;;;;;;;;;;;;;;2132846;27;19956;-42
2022/09/13 04:56:01;;;;;;;;;;;;;;;;;;2132774;27;20382;-42
2022/09/13 04:57:02;;;;;;;;;;;;;;;;;;2132756;27;19930;-42
2022/09/13 04:58:03;;;;;;;;;;;;;;;;;;2132874;27;20326;-42
2022/09/13 04:59:04;;;;;;;;;;;;;;;;;;2132832;27;19923;-42
2022/09/13 05:00:05;;;;;;;;;;;;;;;;;;2133083;27;19950;-45
2022/09/13 05:01:06;;;;;;;;;;;;;;;;;;2132891;27;20292;-46
2022/09/13 05:02:07;;;;;;;;;;;;;;;;;;2132612;27;20010;-44
2022/09/13 05:03:07;;;;;;;;;;;;;;;;;;2132718;27;19923;-45
2022/09/13 05:04:08;;;;;;;;;;;;;;;;;;2132971;27;20007;-46
2022/09/13 05:05:09;;;;;;;;;;;;;;;;;;2132797;27;20296;-45
2022/09/13 05:06:10;;;;;;;;;;;;;;;;;;2132773;27;19923;-45
2022/09/13 05:07:11;;;;;;;;;;;;;;;;;;2132666;27;20420;-46
2022/09/13 05:08:12;;;;;;;;;;;;;;;;;;2132658;27;19939;-44
2022/09/13 05:09:13;;;;;;;;;;;;;;;;;;2132850;27;19930;-45
2022/09/13 05:10:13;;;;;;;;;;;;;;;;;;2132811;27;20010;-44
2022/09/13 05:11:19;;;;;;;;;;;;;;;;;;2132692;27;19931;-45
2022/09/13 05:12:20;;;;;;;;;;;;;;;;;;2132720;27;20269;-45
2022/09/13 05:13:21;;;;;;;;;;;;;;;;;;2132677;27;20014;-45
2022/09/13 05:14:22;;;;;;;;;;;;;;;;;;2132643;27;20432;-46
2022/09/13 05:15:23;;;;;;;;;;;;;;;;;;2132569;27;19998;-45
2022/09/13 05:16:23;;;;;;;;;;;;;;;;;;2132389;27;20275;-45
2022/09/13 05:17:24;;;;;;;;;;;;;;;;;;2132862;27;19950;-45
2022/09/13 05:18:25;;;;;;;;;;;;;;;;;;2132773;27;19923;-45
2022/09/13 05:19:26;;;;;;;;;;;;;;;;;;2132693;27;19922;-45
2022/09/13 05:20:27;;;;;;;;;;;;;;;;;;2132980;27;20367;-44
2022/09/13 05:21:28;;;;;;;;;;;;;;;;;;2132569;27;19923;-46
2022/09/13 05:22:29;;;;;;;;;;;;;;;;;;2132557;27;19981;-46
2022/09/13 05:23:29;;;;;;;;;;;;;;;;;;2132776;27;20020;-45
2022/09/13 05:24:30;;;;;;;;;;;;;;;;;;2132561;27;19946;-44
2022/09/13 05:25:31;;;;;;;;;;;;;;;;;;2132665;27;19923;-44
2022/09/13 05:26:32;;;;;;;;;;;;;;;;;;2132558;27;20333;-45
2022/09/13 05:27:33;;;;;;;;;;;;;;;;;;2132576;27;20398;-44
2022/09/13 05:28:34;;;;;;;;;;;;;;;;;;2132663;27;19930;-46
2022/09/13 05:29:35;;;;;;;;;;;;;;;;;;2132765;27;19923;-44
2022/09/13 05:30:36;;;;;;;;;;;;;;;;;;2132521;27;19972;-45
2022/09/13 05:31:40;;;;;;;;;;;;;;;;;;2132471;27;20501;-45
2022/09/13 05:32:41;;;;;;;;;;;;;;;;;;2132518;27;19952;-44
2022/09/13 05:33:42;;;;;;;;;;;;;;;;;;2132719;27;19924;-45
2022/09/13 05:34:43;;;;;;;;;;;;;;;;;;2132615;27;19923;-44
2022/09/13 05:35:44;;;;;;;;;;;;;;;;;;2132489;27;19923;-46
2022/09/13 05:36:45;;;;;;;;;;;;;;;;;;2132439;27;19931;-44
2022/09/13 05:37:45;;;;;;;;;;;;;;;;;;2132497;27;19976;-45
2022/09/13 05:38:46;;;;;;;;;;;;;;;;;;2132469;27;19923;-45
2022/09/13 05:39:47;;;;;;;;;;;;;;;;;;2132524;27;19974;-44
2022/09/13 05:41:08;;;;;;;;;;;;;;;;;;2132464;27;20325;-45
2022/09/13 05:42:09;;;;;;;;;;;;;;;;;;2132531;27;19927;-45
2022/09/13 05:43:09;;;;;;;;;;;;;;;;;;2132418;27;19973;-46
2022/09/13 05:44:10;;;;;;;;;;;;;;;;;;2131927;27;19923;-45
2022/09/13 05:45:13;;;;;;;;;;;;;;;;;;2131757;27;19923;-46
2022/09/13 05:46:14;;;;;;;;;;;;;;;;;;2132426;27;19930;-45
2022/09/13 05:47:17;;;;;;;;;;;;;;;;;;2132439;27;19923;-41
2022/09/13 05:48:17;;;;;;;;;;;;;;;;;;2132446;27;19924;-41
2022/09/13 05:49:18;;;;;;;;;;;;;;;;;;2132449;27;19930;-41
2022/09/13 05:50:20;;;;;;;;;;;;;;;;;;2132788;27;20008;-44
2022/09/13 05:51:41;;;;;;;;;;;;;;;;;;2132227;27;19923;-44
2022/09/13 05:52:41;;;;;;;;;;;;;;;;;;2132801;27;19968;-41
2022/09/13 05:53:43;;;;;;;;;;;;;;;;;;2132797;27;20003;-41
2022/09/13 05:54:43;;;;;;;;;;;;;;;;;;2132568;27;19923;-41
2022/09/13 05:55:44;;;;;;;;;;;;;;;;;;2132438;27;19962;-41
2022/09/13 05:56:45;;;;;;;;;;;;;;;;;;2132432;27;20299;-41
2022/09/13 05:57:46;;;;;;;;;;;;;;;;;;2132546;27;20358;-45
2022/09/13 05:58:47;;;;;;;;;;;;;;;;;;2132504;27;19923;-45
2022/09/13 05:59:48;;;;;;;;;;;;;;;;;;2132426;27;19923;-45
2022/09/13 06:00:49;;;;;;;;;;;;;;;;;;2132521;27;20018;-44
2022/09/13 06:01:50;;;;;;;;;;;;;;;;;;2132430;27;19931;-44
2022/09/13 06:02:51;;;;;;;;;;;;;;;;;;2132737;27;19923;-45
2022/09/13 06:03:52;;;;;;;;;;;;;;;;;;2132728;27;20021;-44
2022/09/13 06:04:52;;;;;;;;;;;;;;;;;;2132222;27;19923;-44
2022/09/13 06:05:53;;;;;;;;;;;;;;;;;;2132236;27;19930;-44
2022/09/13 06:06:54;;;;;;;;;;;;;;;;;;2132329;27;19959;-45
2022/09/13 06:07:55;;;;;;;;;;;;;;;;;;2132431;27;20356;-44
2022/09/13 06:08:56;;;;;;;;;;;;;;;;;;2132421;27;19930;-44
2022/09/13 06:09:58;;;;;;;;;;;;;;;;;;2132400;27;20395;-44
2022/09/13 06:10:59;;;;;;;;;;;;;;;;;;2131789;27;19964;-44
2022/09/13 06:12:00;;;;;;;;;;;;;;;;;;2123557;27;19928;-41
2022/09/13 06:13:01;;;;;;;;;;;;;;;;;;2127967;27;19923;-45
2022/09/13 06:14:01;;;;;;;;;;;;;;;;;;2132449;27;19923;-41
2022/09/13 06:15:02;;;;;;;;;;;;;;;;;;2132316;27;20015;-41
2022/09/13 06:16:03;;;;;;;;;;;;;;;;;;2132825;27;19930;-44
2022/09/13 06:17:04;;;;;;;;;;;;;;;;;;2132474;27;19923;-45
2022/09/13 06:18:05;;;;;;;;;;;;;;;;;;2132632;27;19931;-41
2022/09/13 06:19:06;;;;;;;;;;;;;;;;;;2132250;27;19924;-41
2022/09/13 06:20:07;;;;;;;;;;;;;;;;;;2132630;27;19944;-41
2022/09/13 06:21:08;;;;;;;;;;;;;;;;;;2132714;27;19967;-41
2022/09/13 06:22:08;;;;;;;;;;;;;;;;;;2132284;27;19923;-41
2022/09/13 06:23:09;;;;;;;;;;;;;;;;;;2133160;27;20334;-45
2022/09/13 06:24:10;;;;;;;;;;;;;;;;;;2132323;27;19929;-44
2022/09/13 06:25:11;;;;;;;;;;;;;;;;;;2132222;27;19924;-45
2022/09/13 06:26:12;;;;;;;;;;;;;;;;;;2132225;27;20014;-45
2022/09/13 06:27:13;;;;;;;;;;;;;;;;;;2132051;27;19927;-46
2022/09/13 06:28:14;;;;;;;;;;;;;;;;;;2132410;27;20280;-44
2022/09/13 06:29:14;;;;;;;;;;;;;;;;;;2132212;27;20364;-45
2022/09/13 06:30:15;;;;;;;;;;;;;;;;;;2132478;27;20352;-41
2022/09/13 06:31:16;;;;;;;;;;;;;;;;;;2132066;27;20041;-41
2022/09/13 06:32:17;;;;;;;;;;;;;;;;;;2132083;27;19923;-41
2022/09/13 06:33:18;;;;;;;;;;;;;;;;;;2132660;27;19923;-41
2022/09/13 06:34:19;;;;;;;;;;;;;;;;;;2132371;27;19985;-45
2022/09/13 06:35:19;;;;;;;;;;;;;;;;;;2132073;27;19977;-44
2022/09/13 06:36:20;;;;;;;;;;;;;;;;;;2132235;27;20372;-44
2022/09/13 06:37:21;;;;;;;;;;;;;;;;;;2132238;27;20001;-45
2022/09/13 06:38:22;;;;;;;;;;;;;;;;;;2132115;27;19924;-44
2022/09/13 06:39:23;;;;;;;;;;;;;;;;;;2132048;27;20395;-45
2022/09/13 06:40:24;;;;;;;;;;;;;;;;;;2132184;27;20018;-44
2022/09/13 06:41:26;;;;;;;;;;;;;;;;;;2132035;27;19967;-44
2022/09/13 06:42:27;;;;;;;;;;;;;;;;;;2132091;27;19946;-44
2022/09/13 06:43:27;;;;;;;;;;;;;;;;;;2132050;27;20386;-44
2022/09/13 06:44:29;;;;;;;;;;;;;;;;;;2132206;27;19951;-45
2022/09/13 06:45:30;;;;;;;;;;;;;;;;;;2131974;27;20327;-45
2022/09/13 06:46:31;;;;;;;;;;;;;;;;;;2132085;27;19925;-44
2022/09/13 06:47:32;;;;;;;;;;;;;;;;;;2132130;27;19924;-45
2022/09/13 06:48:33;;;;;;;;;;;;;;;;;;2132235;27;19923;-45
2022/09/13 06:49:33;;;;;;;;;;;;;;;;;;2132100;27;19975;-45
2022/09/13 06:50:34;;;;;;;;;;;;;;;;;;2131997;27;19923;-45
2022/09/13 06:51:35;;;;;;;;;;;;;;;;;;2131903;27;19930;-45
2022/09/13 06:52:36;;;;;;;;;;;;;;;;;;2132016;27;19931;-44
2022/09/13 06:53:37;;;;;;;;;;;;;;;;;;2132188;27;19930;-45
2022/09/13 06:54:38;;;;;;;;;;;;;;;;;;2131987;27;19930;-45
2022/09/13 06:55:39;;;;;;;;;;;;;;;;;;2132243;27;19923;-41
2022/09/13 06:56:40;;;;;;;;;;;;;;;;;;2131875;27;20010;-41